Time;durP1;ratioP1;P1;durP2;ratioP2;P2;SDS_P1;SDS_P2;PMS_P1;PMS_P2;Temp;Humidity;BMP_temperature;BMP_pressure;BME280_temperature;BME280_humidity;BME280_pressure;Samples;Min_cycle;Max_cycle;Signal;HPM_P1;HPM_P2
2022/11/12 00:03:49;;;;;;;7.87;4.25;;;5.90;99.90;;;;;;7350004;32;20099;-58
2022/11/12 00:07:50;;;;;;;8.52;4.20;;;5.80;99.90;;;;;;7351491;32;20225;-59
2022/11/12 00:11:52;;;;;;;5.20;3.40;;;5.80;99.90;;;;;;7352398;32;20118;-58
2022/11/12 00:15:54;;;;;;;6.87;3.58;;;5.80;99.90;;;;;;7346626;32;20182;-58
2022/11/12 00:19:55;;;;;;;5.18;2.75;;;5.80;99.90;;;;;;7348950;32;20133;-59
2022/11/12 00:23:57;;;;;;;6.85;3.15;;;5.70;99.90;;;;;;7354232;32;20125;-59
2022/11/12 00:28:07;;;;;;;6.43;2.80;;;5.60;99.90;;;;;;7352560;32;20433;-58
2022/11/12 00:32:09;;;;;;;7.75;2.70;;;5.50;99.90;;;;;;7347439;32;20144;-59
2022/11/12 00:36:10;;;;;;;4.55;2.50;;;5.40;99.90;;;;;;7343175;32;20094;-58
2022/11/12 00:40:12;;;;;;;4.72;3.08;;;5.30;99.90;;;;;;7346978;32;20103;-59
2022/11/12 00:44:14;;;;;;;7.07;2.53;;;5.20;99.90;;;;;;7350363;32;20191;-59
2022/11/12 00:48:16;;;;;;;11.60;3.17;;;5.10;99.90;;;;;;7344895;32;20380;-59
2022/11/12 00:52:17;;;;;;;4.50;3.15;;;5.00;99.90;;;;;;7353312;32;20095;-58
2022/11/12 00:56:19;;;;;;;7.22;2.97;;;4.80;99.90;;;;;;7349822;32;20108;-59
2022/11/12 01:00:21;;;;;;;5.85;2.90;;;4.80;99.90;;;;;;7346609;32;20150;-59
2022/11/12 01:04:23;;;;;;;4.60;2.55;;;4.70;99.90;;;;;;7347040;32;20095;-59
2022/11/12 01:08:24;;;;;;;6.15;2.47;;;4.60;99.90;;;;;;7349029;32;20194;-59
2022/11/12 01:12:29;;;;;;;5.50;2.80;;;4.60;99.90;;;;;;7341829;32;20279;-58
2022/11/12 01:16:35;;;;;;;6.85;3.10;;;4.60;99.90;;;;;;7347456;32;20126;-59
2022/11/12 01:20:38;;;;;;;5.87;2.87;;;4.60;99.90;;;;;;7353658;32;20251;-58
2022/11/12 01:24:39;;;;;;;6.05;3.20;;;4.60;99.90;;;;;;7347372;32;20186;-60
2022/11/12 01:28:42;;;;;;;6.32;2.60;;;4.50;99.90;;;;;;7347724;32;20550;-60
2022/11/12 01:32:43;;;;;;;4.43;2.72;;;4.50;99.90;;;;;;7345960;32;20099;-59
2022/11/12 01:36:45;;;;;;;5.97;3.20;;;4.40;99.90;;;;;;7354335;32;20118;-59
2022/11/12 01:40:47;;;;;;;5.68;2.60;;;4.40;99.90;;;;;;7347923;32;21191;-60
2022/11/12 01:44:50;;;;;;;6.90;3.10;;;4.30;99.90;;;;;;7347714;32;20107;-58
2022/11/12 01:48:59;;;;;;;4.68;2.75;;;4.30;99.90;;;;;;7350580;32;20508;-60
2022/11/12 01:53:07;;;;;;;3.78;2.53;;;4.30;99.90;;;;;;7346594;32;20122;-58
2022/11/12 01:57:11;;;;;;;5.12;2.70;;;4.20;99.90;;;;;;7346072;32;20488;-59
2022/11/12 02:01:12;;;;;;;4.68;2.87;;;4.20;99.90;;;;;;7347991;32;20100;-58
2022/11/12 02:05:16;;;;;;;4.05;2.17;;;4.10;99.90;;;;;;7349955;32;20186;-58
2022/11/12 02:09:18;;;;;;;3.37;2.58;;;4.10;99.90;;;;;;7351892;32;20455;-59
2022/11/12 02:17:40;;;;;;;5.78;2.83;;;4.10;99.90;;;;;;7349328;32;20178;-58
2022/11/12 02:21:42;;;;;;;5.80;2.47;;;4.00;99.90;;;;;;7353177;32;20099;-58
2022/11/12 02:25:44;;;;;;;7.10;2.67;;;4.00;99.90;;;;;;7352874;32;20202;-57
2022/11/12 02:29:46;;;;;;;5.82;3.17;;;4.10;99.90;;;;;;7355110;32;20122;-59
2022/11/12 02:33:47;;;;;;;4.47;2.95;;;4.00;99.90;;;;;;7355758;32;20524;-58
2022/11/12 02:37:49;;;;;;;4.68;2.60;;;4.00;99.90;;;;;;7350788;32;20127;-58
2022/11/12 02:41:51;;;;;;;7.57;3.10;;;4.00;99.90;;;;;;7357540;32;20111;-59
2022/11/12 02:45:52;;;;;;;7.18;3.30;;;4.00;99.90;;;;;;7347963;32;20504;-59
2022/11/12 02:49:54;;;;;;;7.05;3.15;;;3.90;99.90;;;;;;7359142;32;20201;-59
2022/11/12 02:53:56;;;;;;;3.90;2.47;;;3.90;99.90;;;;;;7355325;32;20197;-58
2022/11/12 02:57:58;;;;;;;6.22;2.87;;;3.90;99.90;;;;;;7354993;32;20103;-59
2022/11/12 03:01:59;;;;;;;5.60;2.80;;;3.90;99.90;;;;;;7352145;32;20615;-58
2022/11/12 03:06:01;;;;;;;5.30;2.80;;;3.90;99.90;;;;;;7352343;32;20116;-61
2022/11/12 03:10:04;;;;;;;4.37;2.78;;;3.90;99.90;;;;;;7349898;32;20161;-59
2022/11/12 03:14:06;;;;;;;11.32;3.00;;;3.90;99.90;;;;;;7355778;32;20112;-58
2022/11/12 03:18:07;;;;;;;3.90;2.60;;;3.90;99.90;;;;;;7348713;32;20179;-59
2022/11/12 03:22:09;;;;;;;9.00;2.97;;;3.90;99.90;;;;;;7351545;32;20522;-59
2022/11/12 03:26:11;;;;;;;4.95;2.95;;;3.90;99.90;;;;;;7356035;32;20126;-59
2022/11/12 03:30:12;;;;;;;6.72;2.58;;;3.80;99.90;;;;;;7354353;32;20099;-59
2022/11/12 03:34:14;;;;;;;7.60;2.97;;;3.80;99.90;;;;;;7350323;32;20221;-58
2022/11/12 03:38:16;;;;;;;9.60;2.83;;;3.80;99.90;;;;;;7352454;32;20141;-58
2022/11/12 03:42:17;;;;;;;6.07;3.17;;;3.80;99.90;;;;;;7351876;32;20130;-58
2022/11/12 03:46:19;;;;;;;6.12;3.15;;;3.70;99.90;;;;;;7346670;32;20091;-58
2022/11/12 03:50:24;;;;;;;6.90;3.05;;;3.70;99.90;;;;;;7346769;32;20130;-59
2022/11/12 03:54:26;;;;;;;5.25;2.80;;;3.70;99.90;;;;;;7350881;32;20183;-57
2022/11/12 03:58:27;;;;;;;4.43;3.08;;;3.70;99.90;;;;;;7352292;32;20249;-59
2022/11/12 04:02:30;;;;;;;7.55;3.47;;;3.70;99.90;;;;;;7347552;32;20214;-58
2022/11/12 04:10:52;;;;;;;6.30;3.30;;;3.70;99.90;;;;;;7346981;32;20115;-59
2022/11/12 04:14:53;;;;;;;6.43;3.03;;;3.70;99.90;;;;;;7348599;32;20107;-59
2022/11/12 04:23:18;;;;;;;7.18;3.10;;;3.70;99.90;;;;;;7353251;32;20119;-58
2022/11/12 04:27:31;;;;;;;5.30;2.85;;;3.70;99.90;;;;;;7348892;32;20205;-59
2022/11/12 04:31:33;;;;;;;6.47;2.80;;;3.60;99.90;;;;;;7348072;32;20756;-58
2022/11/12 04:35:35;;;;;;;5.50;2.72;;;3.60;99.90;;;;;;7347675;32;20178;-59
2022/11/12 04:39:36;;;;;;;6.65;2.87;;;3.60;99.90;;;;;;7345536;32;20605;-58
2022/11/12 04:47:58;;;;;;;5.18;3.20;;;3.60;99.90;;;;;;7350208;32;20125;-58
2022/11/12 04:52:06;;;;;;;8.43;2.92;;;3.50;99.90;;;;;;7343988;32;20118;-59
2022/11/12 04:56:08;;;;;;;5.62;3.30;;;3.50;99.90;;;;;;7352017;32;20111;-58
2022/11/12 05:00:10;;;;;;;6.12;2.95;;;3.50;99.90;;;;;;7346772;32;20099;-58
2022/11/12 05:04:12;;;;;;;6.18;2.78;;;3.50;99.90;;;;;;7349718;32;20095;-60
2022/11/12 05:08:13;;;;;;;6.62;2.95;;;3.40;99.90;;;;;;7346484;32;20125;-58
2022/11/12 05:12:15;;;;;;;5.75;2.85;;;3.40;99.90;;;;;;7348725;32;20096;-60
2022/11/12 05:16:17;;;;;;;6.37;2.72;;;3.40;99.90;;;;;;7352857;32;20103;-59
2022/11/12 05:20:18;;;;;;;4.62;2.60;;;3.30;99.90;;;;;;7348577;32;20106;-58
2022/11/12 05:24:20;;;;;;;4.43;2.97;;;3.30;99.90;;;;;;7349191;32;20118;-59
2022/11/12 05:28:41;;;;;;;4.18;2.80;;;3.30;99.90;;;;;;7351187;32;20487;-61
2022/11/12 05:32:43;;;;;;;3.95;2.65;;;3.30;99.90;;;;;;7349132;32;20138;-59
2022/11/12 05:36:45;;;;;;;5.95;2.87;;;3.30;99.90;;;;;;7348465;32;20569;-58
2022/11/12 05:40:46;;;;;;;5.78;2.78;;;3.30;99.90;;;;;;7352625;32;20129;-59
2022/11/12 05:44:48;;;;;;;4.07;2.80;;;3.20;99.90;;;;;;7350528;32;20117;-59
2022/11/12 05:48:50;;;;;;;7.78;2.87;;;3.20;99.90;;;;;;7344047;32;20088;-61
2022/11/12 05:52:51;;;;;;;5.57;3.50;;;3.20;99.90;;;;;;7350139;32;20127;-59
2022/11/12 05:56:53;;;;;;;4.93;2.47;;;3.20;99.90;;;;;;7352733;32;20170;-60
2022/11/12 06:00:55;;;;;;;7.80;2.80;;;3.20;99.90;;;;;;7347789;32;20193;-59
2022/11/12 06:04:56;;;;;;;5.87;2.87;;;3.20;99.90;;;;;;7340286;32;20149;-59
2022/11/12 06:08:58;;;;;;;4.65;2.60;;;3.20;99.90;;;;;;7346899;32;20099;-59
2022/11/12 06:13:00;;;;;;;4.65;2.78;;;3.20;99.90;;;;;;7343761;32;20099;-59
2022/11/12 06:17:01;;;;;;;3.58;2.80;;;3.10;99.90;;;;;;7347817;32;20289;-59
2022/11/12 06:21:18;;;;;;;8.05;3.10;;;3.10;99.90;;;;;;7340140;32;21156;-59
2022/11/12 06:25:19;;;;;;;4.22;2.47;;;3.10;99.90;;;;;;7346390;32;20198;-59
2022/11/12 06:29:21;;;;;;;5.45;3.12;;;3.00;99.90;;;;;;7349270;32;20129;-59
2022/11/12 06:33:23;;;;;;;5.40;2.70;;;3.00;99.90;;;;;;7342243;32;20440;-59
2022/11/12 06:37:24;;;;;;;5.60;2.55;;;3.00;99.90;;;;;;7344850;32;20225;-60
2022/11/12 06:41:26;;;;;;;4.53;2.60;;;3.00;99.90;;;;;;7350527;32;20111;-58
2022/11/12 06:45:28;;;;;;;5.65;3.20;;;2.90;99.90;;;;;;7341880;32;20133;-60
2022/11/12 06:49:29;;;;;;;5.05;3.10;;;2.90;99.90;;;;;;7350571;32;20107;-62
2022/11/12 06:53:31;;;;;;;4.55;2.62;;;2.90;99.90;;;;;;7347022;32;20104;-60
2022/11/12 06:57:33;;;;;;;6.55;3.30;;;2.90;99.90;;;;;;7343273;32;20225;-60
2022/11/12 07:01:35;;;;;;;6.60;3.35;;;2.90;99.90;;;;;;7349703;32;20832;-59
2022/11/12 07:05:37;;;;;;;7.45;3.50;;;2.90;99.90;;;;;;7350949;32;20181;-60
2022/11/12 07:09:39;;;;;;;6.75;3.15;;;2.90;99.90;;;;;;7352299;32;20157;-59
2022/11/12 07:13:43;;;;;;;7.47;3.28;;;3.00;99.90;;;;;;7344370;32;20516;-61
2022/11/12 07:17:45;;;;;;;7.57;3.60;;;3.00;99.90;;;;;;7351401;32;20238;-59
2022/11/12 07:21:47;;;;;;;7.82;3.42;;;3.10;99.90;;;;;;7348706;32;20141;-61
2022/11/12 07:26:19;;;;;;;7.78;4.65;;;3.10;99.90;;;;;;7348546;32;20104;-62
2022/11/12 07:30:21;;;;;;;7.62;4.53;;;3.10;99.90;;;;;;7350610;32;20301;-62
2022/11/12 07:34:23;;;;;;;8.00;4.15;;;3.20;99.90;;;;;;7346482;32;20537;-64
2022/11/12 07:38:26;;;;;;;6.93;4.10;;;3.20;99.90;;;;;;7351269;32;20812;-62
2022/11/12 07:42:31;;;;;;;6.40;3.50;;;3.30;99.90;;;;;;7347366;32;20112;-62
2022/11/12 07:46:32;;;;;;;8.77;4.07;;;3.40;99.90;;;;;;7355252;32;20210;-63
2022/11/12 07:50:34;;;;;;;7.28;3.97;;;3.40;99.90;;;;;;7347829;32;20104;-61
2022/11/12 07:54:36;;;;;;;9.32;4.68;;;3.50;99.90;;;;;;7354739;32;20201;-65
2022/11/12 07:58:38;;;;;;;6.32;3.25;;;3.60;99.90;;;;;;7349070;32;20146;-62
2022/11/12 08:02:39;;;;;;;4.95;3.00;;;3.70;99.90;;;;;;7344488;32;20092;-62
2022/11/12 08:06:41;;;;;;;5.47;3.17;;;3.70;99.90;;;;;;7347820;32;20129;-61
2022/11/12 08:10:43;;;;;;;7.20;3.30;;;3.80;99.90;;;;;;7353187;32;20121;-61
2022/11/12 08:14:45;;;;;;;7.95;3.37;;;4.00;99.90;;;;;;7345189;32;21634;-61
2022/11/12 08:18:46;;;;;;;4.82;3.33;;;4.10;99.90;;;;;;7351970;32;20178;-61
2022/11/12 08:22:49;;;;;;;8.57;3.30;;;4.20;99.90;;;;;;7345949;32;20516;-61
2022/11/12 08:26:50;;;;;;;5.45;3.00;;;4.30;99.90;;;;;;7346474;32;20129;-62
2022/11/12 08:30:52;;;;;;;6.87;3.67;;;4.50;99.90;;;;;;7344900;32;20122;-62
2022/11/12 08:34:54;;;;;;;6.93;4.75;;;4.60;99.90;;;;;;7352814;32;20182;-62
2022/11/12 08:38:55;;;;;;;20.02;13.07;;;4.80;99.90;;;;;;7348028;32;20265;-61
2022/11/12 08:43:01;;;;;;;61.03;35.63;;;5.00;99.90;;;;;;7348247;32;24974;-61
2022/11/12 08:47:03;;;;;;;25.73;14.25;;;5.10;99.90;;;;;;7345273;32;20203;-61
2022/11/12 08:51:05;;;;;;;16.95;10.70;;;5.40;99.90;;;;;;7349905;32;20162;-61
2022/11/12 08:55:07;;;;;;;13.50;6.97;;;5.90;99.90;;;;;;7352511;32;20131;-61
2022/11/12 08:59:09;;;;;;;8.23;4.72;;;6.20;99.90;;;;;;7350017;32;20218;-62
2022/11/12 09:03:14;;;;;;;4.03;2.40;;;6.60;99.90;;;;;;7346922;32;20212;-62
2022/11/12 09:07:16;;;;;;;4.25;2.50;;;6.90;99.90;;;;;;7355012;32;20214;-60
2022/11/12 09:11:37;;;;;;;5.37;2.05;;;7.40;99.90;;;;;;7350098;32;20568;-61
2022/11/12 09:15:39;;;;;;;5.25;2.55;;;7.60;99.90;;;;;;7350013;32;20522;-61
2022/11/12 09:19:41;;;;;;;4.82;1.58;;;7.90;99.90;;;;;;7347884;32;20126;-60
2022/11/12 09:23:43;;;;;;;3.92;2.00;;;8.00;99.90;;;;;;7349742;32;20103;-62
2022/11/12 09:27:45;;;;;;;3.17;1.65;;;8.30;99.90;;;;;;7350167;32;20261;-63
2022/11/12 09:31:49;;;;;;;5.45;1.87;;;8.60;99.90;;;;;;7346080;32;20099;-61
2022/11/12 09:35:52;;;;;;;3.30;1.80;;;8.80;99.90;;;;;;7351586;32;20104;-63
2022/11/12 09:39:54;;;;;;;3.70;1.40;;;9.20;99.90;;;;;;7349490;32;20848;-65
2022/11/12 09:44:03;;;;;;;4.82;1.90;;;9.40;99.90;;;;;;7345419;32;20241;-61
2022/11/12 09:48:11;;;;;;;2.58;1.62;;;9.70;99.90;;;;;;7345845;32;20103;-61
2022/11/12 09:52:21;;;;;;;2.83;1.25;;;9.90;99.90;;;;;;7345112;32;20110;-61
2022/11/12 09:56:25;;;;;;;5.45;1.67;;;10.10;99.90;;;;;;7351011;32;20463;-61
2022/11/12 10:00:27;;;;;;;3.20;1.60;;;10.30;99.90;;;;;;7347924;32;20610;-61
2022/11/12 10:04:29;;;;;;;4.85;1.92;;;10.60;99.90;;;;;;7349216;32;20523;-62
2022/11/12 10:09:12;;;;;;;2.40;1.60;;;10.80;99.90;;;;;;7343786;32;20249;-62
2022/11/12 10:13:37;;;;;;;4.10;1.60;;;11.00;99.90;;;;;;7327824;32;20237;-61
2022/11/12 10:17:49;;;;;;;6.97;2.03;;;11.00;99.90;;;;;;7346308;32;20107;-61
2022/11/12 10:22:16;;;;;;;4.97;1.95;;;11.30;99.90;;;;;;7349145;32;20133;-61
2022/11/12 10:26:20;;;;;;;4.03;1.80;;;11.30;99.90;;;;;;7349367;32;20253;-61
2022/11/12 10:30:24;;;;;;;7.50;4.62;;;11.40;99.90;;;;;;7343806;32;20091;-60
2022/11/12 10:34:26;;;;;;;4.50;2.20;;;11.50;99.90;;;;;;7348901;32;20594;-60
2022/11/12 10:38:27;;;;;;;3.22;1.83;;;11.50;99.90;;;;;;7346617;32;20110;-61
2022/11/12 10:42:30;;;;;;;4.25;2.30;;;11.60;99.90;;;;;;7344275;32;20542;-62
2022/11/12 10:46:37;;;;;;;3.83;2.05;;;11.70;99.90;;;;;;7352027;32;20170;-61
2022/11/12 10:50:41;;;;;;;3.15;2.20;;;11.70;99.90;;;;;;7346611;32;20126;-61
2022/11/12 10:54:43;;;;;;;3.95;2.22;;;12.00;99.90;;;;;;7358129;32;20114;-62
2022/11/12 10:58:45;;;;;;;3.28;2.00;;;12.10;99.90;;;;;;7348384;32;20746;-61
2022/11/12 11:02:50;;;;;;;3.70;1.98;;;12.20;99.90;;;;;;7353807;32;20119;-61
2022/11/12 11:07:04;;;;;;;4.97;1.85;;;12.40;99.90;;;;;;7351209;32;20798;-62
2022/11/12 11:11:27;;;;;;;3.20;1.92;;;12.50;99.90;;;;;;7347093;32;20282;-61
2022/11/12 11:15:29;;;;;;;4.10;2.35;;;12.80;99.90;;;;;;7351418;32;20107;-61
2022/11/12 11:19:38;;;;;;;3.72;2.35;;;13.00;99.90;;;;;;7347459;32;20546;-62
2022/11/12 11:23:50;;;;;;;4.75;1.77;;;13.10;99.90;;;;;;7356114;32;20107;-63
2022/11/12 11:28:17;;;;;;;4.65;2.20;;;13.20;99.90;;;;;;7353317;32;20248;-62
2022/11/12 11:32:55;;;;;;;4.15;2.08;;;13.20;99.90;;;;;;7345296;32;20111;-62
2022/11/12 11:37:05;;;;;;;3.92;1.70;;;13.40;99.90;;;;;;7348995;32;20717;-62
2022/11/12 11:41:21;;;;;;;4.60;2.00;;;13.60;99.90;;;;;;7350288;32;20119;-61
2022/11/12 11:45:26;;;;;;;2.78;1.60;;;13.60;99.90;;;;;;7354032;32;20488;-61
2022/11/12 11:49:49;;;;;;;2.87;1.65;;;13.70;99.90;;;;;;7347869;32;20129;-58
2022/11/12 11:54:10;;;;;;;3.97;1.50;;;13.90;99.90;;;;;;7353130;32;20204;-59
2022/11/12 11:58:33;;;;;;;3.65;1.33;;;14.10;99.90;;;;;;7350793;32;20128;-58
2022/11/12 12:03:06;;;;;;;2.72;1.30;;;14.10;99.90;;;;;;7349738;32;20220;-61
2022/11/12 12:07:19;;;;;;;2.45;1.37;;;14.10;99.90;;;;;;7352926;32;20115;-59
2022/11/12 12:12:04;;;;;;;3.40;1.60;;;14.20;99.90;;;;;;7351274;32;20133;-60
2022/11/12 12:16:21;;;;;;;2.85;1.23;;;14.20;99.90;;;;;;7343347;32;20570;-61
2022/11/12 12:20:40;;;;;;;3.33;1.53;;;14.30;99.90;;;;;;7348555;32;20145;-61
2022/11/12 12:24:59;;;;;;;4.28;1.48;;;14.40;99.90;;;;;;7350864;32;20103;-61
2022/11/12 12:29:04;;;;;;;2.55;1.40;;;14.40;99.90;;;;;;7349426;32;20103;-62
2022/11/12 12:33:32;;;;;;;3.58;1.37;;;14.30;99.90;;;;;;7345527;32;20629;-61
2022/11/12 12:37:52;;;;;;;;;;;14.30;99.90;;;;;;7353834;32;20198;-61
2022/11/12 12:42:21;;;;;;;3.22;1.30;;;14.40;99.90;;;;;;7351553;32;20458;-61
2022/11/12 12:46:26;;;;;;;3.80;1.50;;;14.60;99.90;;;;;;7346721;32;20107;-63
2022/11/12 12:50:28;;;;;;;1.87;1.33;;;14.60;99.90;;;;;;7349752;32;20622;-62
2022/11/12 12:54:33;;;;;;;2.30;1.25;;;14.50;99.90;;;;;;7354031;32;20107;-64
2022/11/12 12:58:46;;;;;;;3.65;1.77;;;14.50;99.90;;;;;;7347501;32;20327;-62
2022/11/12 13:02:47;;;;;;;4.85;1.65;;;14.50;99.90;;;;;;7351300;32;20141;-63
2022/11/12 13:06:49;;;;;;;3.90;1.45;;;14.50;99.90;;;;;;7351172;32;20107;-61
2022/11/12 13:10:51;;;;;;;3.12;1.35;;;14.60;99.90;;;;;;7345796;32;20108;-64
2022/11/12 13:15:12;;;;;;;3.05;1.80;;;14.60;99.90;;;;;;7349190;32;20099;-62
2022/11/12 13:19:26;;;;;;;3.50;1.67;;;14.80;99.90;;;;;;7347715;32;20115;-60
2022/11/12 13:24:04;;;;;;;2.75;1.48;;;15.00;99.90;;;;;;7347528;32;20122;-62
2022/11/12 13:28:10;;;;;;;3.15;1.20;;;15.20;99.90;;;;;;7349089;32;20222;-61
2022/11/12 13:32:30;;;;;;;2.75;1.30;;;15.70;99.90;;;;;;7342163;32;20213;-62
2022/11/12 13:36:32;;;;;;;2.67;1.33;;;16.20;99.90;;;;;;7353540;32;20212;-63
2022/11/12 13:41:18;;;;;;;1.85;1.17;;;16.20;99.90;;;;;;7345044;32;20641;-62
2022/11/12 13:45:23;;;;;;;3.22;1.30;;;16.60;99.90;;;;;;7340223;32;20099;-61
2022/11/12 13:49:25;;;;;;;1.92;1.30;;;16.90;99.90;;;;;;7348038;32;20103;-61
2022/11/12 13:53:31;;;;;;;3.22;1.50;;;17.10;99.90;;;;;;7346491;32;20120;-61
2022/11/12 13:57:33;;;;;;;4.12;1.50;;;17.20;99.90;;;;;;7350489;32;20194;-62
2022/11/12 14:01:35;;;;;;;2.33;1.55;;;17.20;99.90;;;;;;7352608;32;20211;-61
2022/11/12 14:05:38;;;;;;;5.22;1.65;;;17.20;99.90;;;;;;7350143;32;20190;-61
2022/11/12 14:10:01;;;;;;;4.12;1.67;;;16.80;99.90;;;;;;7353418;32;20124;-61
2022/11/12 14:14:12;;;;;;;3.12;1.50;;;16.60;99.90;;;;;;7347288;32;20123;-60
2022/11/12 14:18:30;;;;;;;3.12;1.50;;;16.20;99.90;;;;;;7349192;32;20126;-61
2022/11/12 14:22:41;;;;;;;2.97;1.40;;;15.70;99.90;;;;;;7354871;32;20145;-62
2022/11/12 14:26:43;;;;;;;2.42;1.40;;;15.40;99.90;;;;;;7360164;32;20106;-61
2022/11/12 14:30:45;;;;;;;2.72;1.30;;;15.20;99.90;;;;;;7357874;32;20103;-61
2022/11/12 14:34:46;;;;;;;2.87;1.50;;;15.00;99.90;;;;;;7348387;32;20198;-60
2022/11/12 14:38:54;;;;;;;2.42;1.40;;;14.70;99.90;;;;;;7354195;32;20103;-61
2022/11/12 14:42:56;;;;;;;2.47;1.37;;;14.50;99.90;;;;;;7354148;32;21433;-61
2022/11/12 14:46:58;;;;;;;5.30;1.52;;;14.30;99.90;;;;;;7349127;32;20573;-62
2022/11/12 14:51:04;;;;;;;2.62;1.42;;;14.10;99.90;;;;;;7353682;32;20100;-64
2022/11/12 14:55:13;;;;;;;3.72;1.48;;;14.00;99.90;;;;;;7355033;32;20126;-61
2022/11/12 14:59:15;;;;;;;3.05;1.27;;;13.90;99.90;;;;;;7356411;32;20237;-61
2022/11/12 15:03:23;;;;;;;3.35;1.52;;;13.70;99.90;;;;;;7348224;32;20820;-61
2022/11/12 15:07:26;;;;;;;2.22;1.50;;;13.50;99.90;;;;;;7351529;32;20234;-61
2022/11/12 15:11:42;;;;;;;2.28;1.55;;;13.30;99.90;;;;;;7350721;32;20133;-62
2022/11/12 15:16:08;;;;;;;4.22;1.80;;;13.10;99.90;;;;;;7352074;32;20103;-62
2022/11/12 15:20:14;;;;;;;3.60;1.77;;;12.90;99.90;;;;;;7353201;32;20110;-62
2022/11/12 15:24:26;;;;;;;4.45;2.08;;;12.70;99.90;;;;;;7350824;32;20095;-61
2022/11/12 15:28:27;;;;;;;4.97;2.05;;;12.50;99.90;;;;;;7346993;32;20632;-62
2022/11/12 15:32:32;;;;;;;4.90;2.03;;;12.40;99.90;;;;;;7349439;32;20099;-63
2022/11/12 15:36:34;;;;;;;9.52;5.78;;;12.20;99.90;;;;;;7345886;32;20573;-63
2022/11/12 15:40:45;;;;;;;30.02;22.80;;;12.00;99.90;;;;;;7348523;32;20573;-64
2022/11/12 15:44:47;;;;;;;6.25;5.00;;;11.80;99.90;;;;;;7350147;32;20107;-64
2022/11/12 15:48:48;;;;;;;4.12;3.25;;;11.50;99.90;;;;;;7342891;32;20149;-62
2022/11/12 15:52:57;;;;;;;3.90;2.78;;;11.20;99.90;;;;;;7346395;32;20100;-63
2022/11/12 15:56:58;;;;;;;5.00;2.40;;;11.00;99.90;;;;;;7350624;32;20129;-63
2022/11/12 16:01:02;;;;;;;4.12;2.17;;;10.80;99.90;;;;;;7339311;32;20693;-61
2022/11/12 16:05:04;;;;;;;4.15;1.80;;;10.60;99.90;;;;;;7348638;32;20171;-61
2022/11/12 16:09:06;;;;;;;3.33;1.75;;;10.40;99.90;;;;;;7348154;32;20539;-61
2022/11/12 16:13:25;;;;;;;5.18;1.85;;;10.20;99.90;;;;;;7353998;32;20611;-61
2022/11/12 16:17:28;;;;;;;4.95;1.98;;;10.10;99.90;;;;;;7348761;32;21158;-62
2022/11/12 16:21:30;;;;;;;5.10;2.12;;;9.80;99.90;;;;;;7353946;32;20121;-62
2022/11/12 16:25:35;;;;;;;4.25;2.40;;;9.70;99.90;;;;;;7351911;32;20161;-62
2022/11/12 16:29:36;;;;;;;4.50;2.85;;;9.60;99.90;;;;;;7351651;32;20137;-58
2022/11/12 16:33:38;;;;;;;9.90;2.75;;;9.40;99.90;;;;;;7344101;32;20296;-58
2022/11/12 16:37:42;;;;;;;5.90;3.00;;;9.30;99.90;;;;;;7346255;32;20111;-60
2022/11/12 16:41:43;;;;;;;6.85;3.53;;;9.20;99.90;;;;;;7352976;32;20226;-58
2022/11/12 16:45:45;;;;;;;6.15;3.40;;;9.00;99.90;;;;;;7347244;32;20564;-59
2022/11/12 16:49:47;;;;;;;7.22;3.10;;;8.90;99.90;;;;;;7347953;32;20214;-60
2022/11/12 16:53:48;;;;;;;4.25;3.03;;;8.80;99.90;;;;;;7345414;32;20246;-60
2022/11/12 16:57:50;;;;;;;6.85;3.62;;;8.80;99.90;;;;;;7352939;32;20182;-61
2022/11/12 17:01:52;;;;;;;5.00;3.10;;;8.60;99.90;;;;;;7339382;32;20476;-60
2022/11/12 17:05:54;;;;;;;6.12;2.62;;;8.50;99.90;;;;;;7329550;32;20573;-60
2022/11/12 17:09:55;;;;;;;4.75;2.87;;;8.40;99.90;;;;;;7336151;32;20179;-59
2022/11/12 17:14:02;;;;;;;7.00;2.95;;;8.30;99.90;;;;;;7327442;32;21787;-57
2022/11/12 17:18:04;;;;;;;8.00;6.87;;;8.20;99.90;;;;;;7316546;32;20213;-58
2022/11/12 17:22:06;;;;;;;6.55;4.60;;;8.10;99.90;;;;;;7334773;32;20285;-58
2022/11/12 17:26:13;;;;;;;5.82;3.62;;;8.00;99.90;;;;;;7328716;32;20099;-59
2022/11/12 17:30:16;;;;;;;5.70;3.17;;;7.90;99.90;;;;;;7338639;32;20125;-59
2022/11/12 17:34:18;;;;;;;4.72;2.87;;;7.80;99.90;;;;;;7336692;32;20133;-58
2022/11/12 17:38:19;;;;;;;4.68;2.80;;;7.80;99.90;;;;;;7332825;32;20178;-58
2022/11/12 17:42:21;;;;;;;6.35;3.97;;;7.70;99.90;;;;;;7339454;32;20163;-59
2022/11/12 17:46:23;;;;;;;4.90;2.83;;;7.70;99.90;;;;;;7328822;32;20166;-58
2022/11/12 17:50:25;;;;;;;13.13;9.10;;;7.60;99.90;;;;;;7335169;32;20219;-57
2022/11/12 17:54:26;;;;;;;14.30;8.05;;;7.50;99.90;;;;;;7327341;32;20183;-57
2022/11/12 17:58:28;;;;;;;4.85;2.60;;;7.50;99.90;;;;;;7335396;32;20088;-58
2022/11/12 18:02:30;;;;;;;5.12;2.00;;;7.40;99.90;;;;;;7339003;32;20103;-57
2022/11/12 18:06:33;;;;;;;6.32;2.50;;;7.40;99.90;;;;;;7343943;32;20107;-58
2022/11/12 18:10:35;;;;;;;3.85;2.15;;;7.30;99.90;;;;;;7332888;32;20222;-57
2022/11/12 18:14:37;;;;;;;4.12;2.30;;;7.20;99.90;;;;;;7342583;32;20122;-58
2022/11/12 18:18:38;;;;;;;9.75;2.17;;;7.20;99.90;;;;;;7340328;32;20177;-57
2022/11/12 18:22:40;;;;;;;4.55;2.75;;;7.20;99.90;;;;;;7342495;32;20169;-60
2022/11/12 18:26:45;;;;;;;4.72;2.60;;;7.10;99.90;;;;;;7343842;32;20211;-58
2022/11/12 18:30:47;;;;;;;6.78;2.80;;;7.20;99.90;;;;;;7336884;32;20127;-58
2022/11/12 18:34:49;;;;;;;5.78;2.40;;;7.00;99.90;;;;;;7331510;32;20269;-57
2022/11/12 18:38:54;;;;;;;3.58;2.42;;;7.00;99.90;;;;;;7343630;32;20110;-59
2022/11/12 18:42:56;;;;;;;4.87;3.03;;;7.00;99.90;;;;;;7335541;32;20214;-58
2022/11/12 18:46:58;;;;;;;8.75;3.40;;;7.10;99.90;;;;;;7342411;32;20519;-58
2022/11/12 18:51:06;;;;;;;5.15;3.08;;;7.20;99.90;;;;;;7337067;32;20118;-59
2022/11/12 18:55:08;;;;;;;4.32;2.62;;;7.40;99.90;;;;;;7341978;32;20233;-58
2022/11/12 18:59:12;;;;;;;6.85;2.65;;;7.70;99.90;;;;;;7332141;32;20228;-59
2022/11/12 19:03:14;;;;;;;4.20;2.45;;;7.90;99.90;;;;;;7345110;32;20103;-59
2022/11/12 19:07:16;;;;;;;5.87;2.80;;;8.20;99.90;;;;;;7352856;32;20484;-58
2022/11/12 19:11:20;;;;;;;3.40;2.30;;;8.50;99.90;;;;;;7348099;32;20206;-59
2022/11/12 19:15:22;;;;;;;4.90;2.72;;;8.60;99.90;;;;;;7345644;32;20127;-59
2022/11/12 19:19:27;;;;;;;6.90;2.70;;;8.70;99.90;;;;;;7339153;32;20091;-60
2022/11/12 19:23:29;;;;;;;6.05;3.15;;;8.70;99.90;;;;;;7340677;32;20186;-59
2022/11/12 19:27:31;;;;;;;6.00;3.08;;;8.70;99.90;;;;;;7354623;32;20095;-60
2022/11/12 19:31:33;;;;;;;6.97;3.83;;;8.60;99.90;;;;;;7353928;32;20125;-60
2022/11/12 19:35:37;;;;;;;5.53;3.62;;;8.70;99.90;;;;;;7351231;32;20104;-61
2022/11/12 19:39:39;;;;;;;5.70;3.60;;;8.60;99.90;;;;;;7353582;32;20222;-60
2022/11/12 19:43:41;;;;;;;5.80;3.50;;;8.40;99.90;;;;;;7344534;32;20223;-61
2022/11/12 19:47:43;;;;;;;7.72;3.67;;;8.30;99.90;;;;;;7349169;32;20232;-62
2022/11/12 19:51:44;;;;;;;6.57;3.47;;;8.30;99.90;;;;;;7346847;32;20170;-60
2022/11/12 19:55:46;;;;;;;7.32;4.10;;;8.30;99.90;;;;;;7354546;32;20125;-59
2022/11/12 19:59:48;;;;;;;7.78;3.75;;;8.10;99.90;;;;;;7356062;32;20534;-60
2022/11/12 20:03:49;;;;;;;8.40;3.83;;;8.10;99.90;;;;;;7351288;32;20096;-60
2022/11/12 20:07:51;;;;;;;8.05;4.90;;;8.00;99.90;;;;;;7349232;32;20176;-61
2022/11/12 20:11:53;;;;;;;9.27;4.72;;;7.90;99.90;;;;;;7347797;32;20125;-60
2022/11/12 20:15:55;;;;;;;6.90;4.53;;;7.80;99.90;;;;;;7354309;32;20528;-60
2022/11/12 20:19:56;;;;;;;6.10;4.05;;;7.70;99.90;;;;;;7352868;32;20488;-59
2022/11/12 20:23:59;;;;;;;8.40;5.00;;;7.70;99.90;;;;;;7347406;32;20091;-61
2022/11/12 20:28:01;;;;;;;8.90;4.97;;;7.60;99.90;;;;;;7346202;32;20127;-60
2022/11/12 20:32:03;;;;;;;7.70;4.37;;;7.70;99.90;;;;;;7351892;32;20122;-61
2022/11/12 20:36:11;;;;;;;8.35;4.53;;;7.60;99.90;;;;;;7347392;32;20130;-63
2022/11/12 20:40:12;;;;;;;8.63;3.55;;;7.60;99.90;;;;;;7353347;32;20126;-59
2022/11/12 20:44:15;;;;;;;9.65;3.97;;;7.60;99.90;;;;;;7354398;32;20121;-60
2022/11/12 20:48:18;;;;;;;7.28;3.85;;;7.60;99.90;;;;;;7346682;32;20107;-60
2022/11/12 20:52:20;;;;;;;7.05;3.12;;;7.50;99.90;;;;;;7355078;32;20100;-62
2022/11/12 20:56:24;;;;;;;6.50;3.67;;;7.50;99.90;;;;;;7353857;32;20111;-61
2022/11/12 21:00:26;;;;;;;4.82;3.40;;;7.50;99.90;;;;;;7336727;32;20193;-59
2022/11/12 21:04:27;;;;;;;5.53;3.40;;;7.40;99.90;;;;;;7344490;32;20226;-60
2022/11/12 21:08:31;;;;;;;6.70;3.35;;;7.40;99.90;;;;;;7349922;32;20238;-59
2022/11/12 21:12:32;;;;;;;5.47;3.40;;;7.40;99.90;;;;;;7355093;32;20103;-59
2022/11/12 21:16:34;;;;;;;6.03;3.92;;;7.30;99.90;;;;;;7349657;32;20233;-59
2022/11/12 21:20:36;;;;;;;8.73;4.07;;;7.20;99.90;;;;;;7351955;32;20740;-61
2022/11/12 21:24:37;;;;;;;7.50;4.30;;;7.20;99.90;;;;;;7339967;32;20210;-60
2022/11/12 21:28:57;;;;;;;6.05;4.18;;;7.10;99.90;;;;;;7341666;32;20205;-59
2022/11/12 21:32:59;;;;;;;7.40;4.10;;;7.10;99.90;;;;;;7350675;32;20201;-59
2022/11/12 21:37:01;;;;;;;7.47;4.50;;;7.00;99.90;;;;;;7351404;32;20107;-60
2022/11/12 21:41:06;;;;;;;7.25;4.37;;;6.90;99.90;;;;;;7348406;32;20126;-59
2022/11/12 21:45:09;;;;;;;11.18;4.95;;;6.90;99.90;;;;;;7350735;32;20103;-59